Time;durP1;ratioP1;P1;durP2;ratioP2;P2;SDS_P1;SDS_P2;PMS_P1;PMS_P2;Temp;Humidity;BMP_temperature;BMP_pressure;BME280_temperature;BME280_humidity;BME280_pressure;Samples;Min_cycle;Max_cycle;Signal;HPM_P1;HPM_P2
2021/11/01 00:01:39;;;;;;;7.00;3.13;;;;;;;;;;4974643;28;20432;-52
2021/11/01 00:04:05;;;;;;;9.60;3.07;;;;;;;;;;4974921;28;20428;-53
2021/11/01 00:06:31;;;;;;;11.07;2.60;;;;;;;;;;4974848;28;20894;-53
2021/11/01 00:08:59;;;;;;;7.73;3.10;;;;;;;;;;4974862;28;20401;-52
2021/11/01 00:11:25;;;;;;;8.60;3.27;;;;;;;;;;4974392;28;20456;-51
2021/11/01 00:13:51;;;;;;;9.63;3.20;;;;;;;;;;4974602;28;20432;-50
2021/11/01 00:16:17;;;;;;;10.80;3.20;;;;;;;;;;4974586;28;20405;-52
2021/11/01 00:18:43;;;;;;;21.43;3.70;;;;;;;;;;4974604;28;20459;-52
2021/11/01 00:21:09;;;;;;;10.17;3.23;;;;;;;;;;4974232;28;20420;-54
2021/11/01 00:23:35;;;;;;;12.33;3.47;;;;;;;;;;4974430;28;20531;-53
2021/11/01 00:26:01;;;;;;;10.10;2.87;;;;;;;;;;4974530;28;20432;-53
2021/11/01 00:28:27;;;;;;;8.90;2.77;;;;;;;;;;4974448;28;20927;-52
2021/11/01 00:30:56;;;;;;;17.60;4.20;;;;;;;;;;4972736;28;20441;-53
2021/11/01 00:33:22;;;;;;;12.43;3.50;;;;;;;;;;4974350;28;20773;-51
2021/11/01 00:35:49;;;;;;;3.80;2.40;;;;;;;;;;4974322;28;20409;-51
2021/11/01 00:38:15;;;;;;;9.37;3.47;;;;;;;;;;4974546;28;20413;-53
2021/11/01 00:40:41;;;;;;;7.90;2.80;;;;;;;;;;4973930;28;20427;-52
2021/11/01 00:43:08;;;;;;;9.83;3.10;;;;;;;;;;4974169;28;21014;-51
2021/11/01 00:45:34;;;;;;;14.43;3.53;;;;;;;;;;4973983;28;20393;-53
2021/11/01 00:48:00;;;;;;;15.13;2.50;;;;;;;;;;4974075;28;20476;-53
2021/11/01 00:50:26;;;;;;;8.63;3.10;;;;;;;;;;4973654;28;20909;-53
2021/11/01 00:52:53;;;;;;;18.03;4.40;;;;;;;;;;4973794;28;20444;-53
2021/11/01 00:58:22;;;;;;;10.00;2.73;;;;;;;;;;4973823;28;20744;-53
2021/11/01 01:00:49;;;;;;;10.27;2.80;;;;;;;;;;4973452;28;20870;-53
2021/11/01 01:03:15;;;;;;;7.60;2.83;;;;;;;;;;4973793;28;20460;-52
2021/11/01 01:05:43;;;;;;;7.83;3.73;;;;;;;;;;4973774;28;20467;-53
2021/11/01 01:08:09;;;;;;;9.97;3.00;;;;;;;;;;4973753;28;20479;-53
2021/11/01 01:10:36;;;;;;;12.40;2.40;;;;;;;;;;4973258;28;20449;-51
2021/11/01 01:13:02;;;;;;;21.67;3.10;;;;;;;;;;4973603;28;20496;-53
2021/11/01 01:15:35;;;;;;;5.30;3.27;;;;;;;;;;4973646;28;20534;-54
2021/11/01 01:18:07;;;;;;;6.37;3.03;;;;;;;;;;4973572;28;20488;-54
2021/11/01 01:20:33;;;;;;;10.73;3.03;;;;;;;;;;4973226;28;20405;-54
2021/11/01 01:22:59;;;;;;;13.80;3.40;;;;;;;;;;4973395;28;20929;-53
2021/11/01 01:27:53;;;;;;;6.23;2.67;;;;;;;;;;4973167;28;20405;-52
2021/11/01 01:30:19;;;;;;;9.00;2.43;;;;;;;;;;4973065;28;20412;-52
2021/11/01 01:32:45;;;;;;;13.07;3.07;;;;;;;;;;4973377;28;20405;-53
2021/11/01 01:35:13;;;;;;;10.80;3.20;;;;;;;;;;4974006;28;20409;-52
2021/11/01 01:37:39;;;;;;;4.17;2.83;;;;;;;;;;4973228;28;20847;-52
2021/11/01 01:40:09;;;;;;;10.27;3.00;;;;;;;;;;4973094;28;20490;-52
2021/11/01 01:42:36;;;;;;;13.60;2.97;;;;;;;;;;4973049;28;20540;-52
2021/11/01 01:45:03;;;;;;;9.90;2.83;;;;;;;;;;4973217;28;20433;-52
2021/11/01 01:47:29;;;;;;;7.77;2.53;;;;;;;;;;4973155;28;20433;-52
2021/11/01 01:49:55;;;;;;;13.93;4.13;;;;;;;;;;4973016;28;20413;-51
2021/11/01 01:52:21;;;;;;;12.40;3.00;;;;;;;;;;4972808;28;20440;-52
2021/11/01 01:54:48;;;;;;;11.83;2.37;;;;;;;;;;4972927;28;20405;-52
2021/11/01 01:57:14;;;;;;;10.20;2.83;;;;;;;;;;4973179;28;20418;-51
2021/11/01 01:59:40;;;;;;;10.03;2.70;;;;;;;;;;4973141;28;20417;-51
2021/11/01 02:02:06;;;;;;;10.87;3.60;;;;;;;;;;4972117;28;20456;-52
2021/11/01 02:04:34;;;;;;;8.20;2.90;;;;;;;;;;4973638;28;20408;-51
2021/11/01 02:07:18;;;;;;;8.07;2.60;;;;;;;;;;4976659;28;20403;-51
2021/11/01 02:10:07;;;;;;;12.70;3.10;;;;;;;;;;4976830;28;20404;-53
2021/11/01 02:12:33;;;;;;;14.73;2.93;;;;;;;;;;4976755;28;20476;-51
2021/11/01 02:15:02;;;;;;;11.70;2.93;;;;;;;;;;4977115;28;20822;-53
2021/11/01 02:17:29;;;;;;;8.70;2.60;;;;;;;;;;4976859;28;20417;-53
2021/11/01 02:20:03;;;;;;;10.27;3.47;;;;;;;;;;4976661;28;20401;-52
2021/11/01 02:22:48;;;;;;;3.73;2.10;;;;;;;;;;4976376;28;20564;-51
2021/11/01 02:25:33;;;;;;;11.07;2.63;;;;;;;;;;4976709;28;20428;-52
2021/11/01 02:27:59;;;;;;;9.53;2.73;;;;;;;;;;4975335;28;20555;-52
2021/11/01 02:30:25;;;;;;;7.40;3.10;;;;;;;;;;4976182;28;20905;-50
2021/11/01 02:32:51;;;;;;;6.93;2.13;;;;;;;;;;4976525;28;20509;-50
2021/11/01 02:35:18;;;;;;;3.87;2.37;;;;;;;;;;4976565;28;20413;-52
2021/11/01 02:37:44;;;;;;;3.77;2.30;;;;;;;;;;4976445;28;20420;-51
2021/11/01 02:40:10;;;;;;;8.00;2.70;;;;;;;;;;4976168;28;20432;-52
2021/11/01 02:42:37;;;;;;;8.27;2.57;;;;;;;;;;4976170;28;20488;-50
2021/11/01 02:45:08;;;;;;;10.20;2.30;;;;;;;;;;4976656;28;20437;-50
2021/11/01 02:47:34;;;;;;;12.77;2.60;;;;;;;;;;4976328;28;20409;-52
2021/11/01 02:50:01;;;;;;;5.20;2.17;;;;;;;;;;4976177;28;20400;-51
2021/11/01 02:52:28;;;;;;;6.23;2.20;;;;;;;;;;4976058;28;20471;-51
2021/11/01 02:54:54;;;;;;;11.57;2.70;;;;;;;;;;4976104;28;20408;-51
2021/11/01 02:57:21;;;;;;;7.57;2.70;;;;;;;;;;4976017;28;20455;-51
2021/11/01 02:59:47;;;;;;;6.50;3.23;;;;;;;;;;4976015;28;20409;-52
2021/11/01 03:02:13;;;;;;;5.00;1.80;;;;;;;;;;4975653;28;20467;-50
2021/11/01 03:04:39;;;;;;;6.17;2.93;;;;;;;;;;4975994;28;20400;-51
2021/11/01 03:07:06;;;;;;;4.50;2.07;;;;;;;;;;4975990;28;20786;-52
2021/11/01 03:09:33;;;;;;;4.40;2.10;;;;;;;;;;4975756;28;20417;-50
2021/11/01 03:12:01;;;;;;;9.37;2.57;;;;;;;;;;4975476;28;20944;-52
2021/11/01 03:14:29;;;;;;;6.20;1.67;;;;;;;;;;4975772;28;20440;-51
2021/11/01 03:16:59;;;;;;;5.80;2.70;;;;;;;;;;4975655;28;20763;-50
2021/11/01 03:19:29;;;;;;;6.93;2.07;;;;;;;;;;4975931;28;20409;-52
2021/11/01 03:21:56;;;;;;;8.63;2.50;;;;;;;;;;4975254;28;20992;-52
2021/11/01 03:24:23;;;;;;;5.17;2.30;;;;;;;;;;4975539;28;20405;-52
2021/11/01 03:26:50;;;;;;;6.77;2.30;;;;;;;;;;4975534;28;20959;-51
2021/11/01 03:29:16;;;;;;;5.37;1.87;;;;;;;;;;4975483;28;20401;-52
2021/11/01 03:31:43;;;;;;;10.00;3.03;;;;;;;;;;4975198;28;20452;-51
2021/11/01 03:34:10;;;;;;;14.00;2.63;;;;;;;;;;4975806;28;20917;-52
2021/11/01 03:36:36;;;;;;;13.37;2.47;;;;;;;;;;4975363;28;20405;-51
2021/11/01 03:39:06;;;;;;;3.77;2.70;;;;;;;;;;4975727;28;20485;-51
2021/11/01 03:41:33;;;;;;;4.73;2.57;;;;;;;;;;4974999;28;20425;-51
2021/11/01 03:44:06;;;;;;;9.83;2.10;;;;;;;;;;4975188;28;20496;-51
2021/11/01 03:46:41;;;;;;;7.23;2.30;;;;;;;;;;4975267;28;20405;-51
2021/11/01 03:49:09;;;;;;;3.60;1.97;;;;;;;;;;4975173;28;20401;-50
2021/11/01 03:54:12;;;;;;;6.10;2.20;;;;;;;;;;4975280;28;20471;-51
2021/11/01 03:56:38;;;;;;;7.60;2.83;;;;;;;;;;4975091;28;20494;-52
2021/11/01 03:59:04;;;;;;;12.00;3.00;;;;;;;;;;4974942;28;20897;-50
2021/11/01 04:01:30;;;;;;;7.10;2.23;;;;;;;;;;4974712;28;20436;-53
2021/11/01 04:03:58;;;;;;;4.13;2.13;;;;;;;;;;4974729;28;20457;-51
2021/11/01 04:06:24;;;;;;;6.27;2.00;;;;;;;;;;4974856;28;20458;-51
2021/11/01 04:08:50;;;;;;;9.10;3.07;;;;;;;;;;4974776;28;20748;-50
2021/11/01 04:11:17;;;;;;;7.10;2.50;;;;;;;;;;4974496;28;20478;-50
2021/11/01 04:13:43;;;;;;;13.57;2.73;;;;;;;;;;4974660;28;20433;-52
2021/11/01 04:16:12;;;;;;;4.43;2.73;;;;;;;;;;4974734;28;20500;-52
2021/11/01 04:21:22;;;;;;;4.40;2.53;;;;;;;;;;4974262;28;20476;-50
2021/11/01 04:23:48;;;;;;;8.17;2.43;;;;;;;;;;4974416;28;20952;-50
2021/11/01 04:26:16;;;;;;;12.70;2.93;;;;;;;;;;4974467;28;20479;-50
2021/11/01 04:28:42;;;;;;;11.77;2.77;;;;;;;;;;4973892;28;20408;-52
2021/11/01 04:31:12;;;;;;;4.73;2.10;;;;;;;;;;4974498;28;20420;-51
2021/11/01 04:33:41;;;;;;;8.70;2.37;;;;;;;;;;4974347;28;20876;-51
2021/11/01 04:36:09;;;;;;;11.37;2.30;;;;;;;;;;4974319;28;20475;-51
2021/11/01 04:38:44;;;;;;;6.37;2.37;;;;;;;;;;4974269;28;20401;-50
2021/11/01 04:41:33;;;;;;;7.80;2.00;;;;;;;;;;4973876;28;20916;-51
2021/11/01 04:44:16;;;;;;;6.97;2.03;;;;;;;;;;4974098;28;20484;-51
2021/11/01 04:54:56;;;;;;;4.47;2.10;;;;;;;;;;4974024;28;20434;-52
2021/11/01 04:57:23;;;;;;;5.17;2.27;;;;;;;;;;4973915;28;20426;-51
2021/11/01 04:59:50;;;;;;;4.73;2.17;;;;;;;;;;4973831;28;20456;-51
2021/11/01 05:02:17;;;;;;;10.50;2.53;;;;;;;;;;4973387;28;20452;-50
2021/11/01 05:04:45;;;;;;;3.83;2.50;;;;;;;;;;4973780;28;20398;-51
2021/11/01 05:07:11;;;;;;;6.83;2.10;;;;;;;;;;4973831;28;20787;-51
2021/11/01 05:12:26;;;;;;;8.83;2.73;;;;;;;;;;4973493;28;20956;-52
2021/11/01 05:15:04;;;;;;;4.57;2.00;;;;;;;;;;4973543;28;20439;-50
2021/11/01 05:17:40;;;;;;;4.80;2.23;;;;;;;;;;4973622;28;20488;-50
2021/11/01 05:25:31;;;;;;;3.47;1.90;;;;;;;;;;4973379;28;20409;-51
2021/11/01 05:28:03;;;;;;;3.23;1.97;;;;;;;;;;4973397;28;20911;-50
2021/11/01 05:30:32;;;;;;;6.73;1.87;;;;;;;;;;4973032;28;20790;-51
2021/11/01 05:33:05;;;;;;;2.97;2.10;;;;;;;;;;4973311;28;20412;-51
2021/11/01 05:35:32;;;;;;;9.20;2.90;;;;;;;;;;4973177;28;20413;-51
2021/11/01 05:37:58;;;;;;;8.03;2.53;;;;;;;;;;4973239;28;20408;-51
2021/11/01 05:40:24;;;;;;;11.80;2.50;;;;;;;;;;4972061;28;20517;-51
2021/11/01 05:42:51;;;;;;;3.77;2.83;;;;;;;;;;4973173;28;20456;-51
2021/11/01 05:45:17;;;;;;;1.77;1.67;;;;;;;;;;4973177;28;20408;-51
2021/11/01 05:47:46;;;;;;;3.33;1.70;;;;;;;;;;4973156;28;20400;-49
2021/11/01 05:50:12;;;;;;;5.13;1.93;;;;;;;;;;4972676;28;20418;-49
2021/11/01 05:52:41;;;;;;;5.03;1.90;;;;;;;;;;4972997;28;20504;-50
2021/11/01 05:55:35;;;;;;;4.40;1.97;;;;;;;;;;4973276;28;20448;-49
2021/11/01 06:03:17;;;;;;;6.00;1.80;;;;;;;;;;4972807;28;20484;-50
2021/11/01 06:06:04;;;;;;;9.23;2.17;;;;;;;;;;4973062;28;20403;-49
2021/11/01 06:08:54;;;;;;;4.30;1.93;;;;;;;;;;4972998;28;20951;-50
2021/11/01 06:13:57;;;;;;;8.67;2.70;;;;;;;;;;4972459;28;20805;-52
2021/11/01 06:16:23;;;;;;;3.67;1.80;;;;;;;;;;4972344;28;20463;-50
2021/11/01 06:18:49;;;;;;;5.80;2.83;;;;;;;;;;4972455;28;20417;-50
2021/11/01 06:21:16;;;;;;;8.63;2.10;;;;;;;;;;4967408;28;20448;-51
2021/11/01 06:23:46;;;;;;;5.57;2.67;;;;;;;;;;4980942;28;20464;-50
2021/11/01 06:26:17;;;;;;;7.10;2.00;;;;;;;;;;4974480;28;20409;-51
2021/11/01 06:28:43;;;;;;;8.00;2.30;;;;;;;;;;4974945;28;20405;-50
2021/11/01 06:31:36;;;;;;;4.67;1.93;;;;;;;;;;4974109;28;20421;-50
2021/11/01 06:34:25;;;;;;;4.63;2.50;;;;;;;;;;4974226;28;20916;-51
2021/11/01 06:39:15;;;;;;;15.20;2.60;;;;;;;;;;4971083;28;20401;-49
2021/11/01 06:42:29;;;;;;;5.17;2.40;;;;;;;;;;4971329;28;20523;-50
2021/11/01 06:45:18;;;;;;;11.43;2.23;;;;;;;;;;4972026;28;20456;-51
2021/11/01 06:55:58;;;;;;;7.13;2.20;;;;;;;;;;4975743;28;20433;-51
2021/11/01 07:20:31;;;;;;;4.60;1.80;;;;;;;;;;4954584;28;20782;-50
2021/11/01 09:12:50;;;;;;;3.37;1.87;;;;;;;;;;4998386;28;20407;-52
2021/11/01 09:26:05;;;;;;;3.20;1.60;;;;;;;;;;4995363;28;20931;-53
2021/11/01 09:36:45;;;;;;;3.57;1.40;;;;;;;;;;4996573;28;20453;-51
2021/11/01 09:41:59;;;;;;;8.23;2.03;;;;;;;;;;4992677;28;20888;-51
2021/11/01 09:44:26;;;;;;;3.93;1.87;;;;;;;;;;4992314;28;20951;-52
2021/11/01 09:46:57;;;;;;;4.10;1.87;;;;;;;;;;4992607;28;20842;-51
2021/11/01 09:49:23;;;;;;;7.23;1.70;;;;;;;;;;5007584;28;20435;-53
2021/11/01 09:51:50;;;;;;;5.30;1.80;;;;;;;;;;4994617;28;20412;-55
2021/11/01 09:54:22;;;;;;;3.00;1.50;;;;;;;;;;4993895;28;20424;-55
2021/11/01 09:56:59;;;;;;;3.93;2.10;;;;;;;;;;4992829;28;20853;-54
2021/11/01 09:59:30;;;;;;;7.23;2.37;;;;;;;;;;4994202;28;20424;-55
2021/11/01 10:01:56;;;;;;;7.83;1.57;;;;;;;;;;4994701;28;20384;-53
2021/11/01 10:04:22;;;;;;;4.17;1.87;;;;;;;;;;4993654;28;20511;-54
2021/11/01 10:07:04;;;;;;;3.00;1.90;;;;;;;;;;4994083;28;20900;-54
2021/11/01 10:09:31;;;;;;;3.70;1.67;;;;;;;;;;4994351;28;20396;-54
2021/11/01 10:11:58;;;;;;;8.20;2.00;;;;;;;;;;4991837;28;20443;-53
2021/11/01 10:14:26;;;;;;;2.63;1.97;;;;;;;;;;4992080;28;20424;-51
2021/11/01 10:19:40;;;;;;;2.40;1.70;;;;;;;;;;4992976;28;20443;-52
2021/11/01 10:22:33;;;;;;;3.60;1.80;;;;;;;;;;4992836;28;20411;-51
2021/11/01 10:25:00;;;;;;;3.13;2.83;;;;;;;;;;4991948;28;20406;-51
2021/11/01 10:27:30;;;;;;;3.97;2.00;;;;;;;;;;4996314;28;20393;-54
2021/11/01 10:29:58;;;;;;;1.90;1.50;;;;;;;;;;4996623;28;20446;-51
2021/11/01 10:32:28;;;;;;;6.33;1.80;;;;;;;;;;4996182;28;20497;-52
2021/11/01 10:35:16;;;;;;;2.70;1.63;;;;;;;;;;4995701;28;20497;-52
2021/11/01 10:37:56;;;;;;;4.23;1.60;;;;;;;;;;4995887;28;20418;-53
2021/11/01 10:40:24;;;;;;;2.93;1.97;;;;;;;;;;4995331;28;20913;-51
2021/11/01 10:42:50;;;;;;;2.40;1.53;;;;;;;;;;4995697;28;20579;-51
2021/11/01 10:45:40;;;;;;;3.70;1.50;;;;;;;;;;4995494;28;20874;-51
2021/11/01 10:59:24;;;;;;;3.43;1.67;;;;;;;;;;4995591;28;20419;-51
2021/11/01 11:12:59;;;;;;;5.80;2.10;;;;;;;;;;4995221;28;20415;-51
2021/11/01 11:15:26;;;;;;;2.70;1.70;;;;;;;;;;4993933;28;20434;-51
2021/11/01 11:42:51;;;;;;;8.03;1.50;;;;;;;;;;4994569;28;20881;-51
2021/11/01 11:48:23;;;;;;;1.30;1.20;;;;;;;;;;4994639;28;20971;-51
2021/11/01 11:50:51;;;;;;;3.00;1.57;;;;;;;;;;4993938;28;20772;-51
2021/11/01 11:53:19;;;;;;;1.80;1.10;;;;;;;;;;4994583;28;20452;-51
2021/11/01 11:55:46;;;;;;;1.50;1.20;;;;;;;;;;4994179;28;20430;-52
2021/11/01 11:58:14;;;;;;;2.10;1.43;;;;;;;;;;4994421;28;20406;-52
2021/11/01 12:00:41;;;;;;;2.13;1.70;;;;;;;;;;4994287;28;20400;-51
2021/11/01 12:03:11;;;;;;;3.57;1.23;;;;;;;;;;4994186;28;20537;-53
2021/11/01 12:06:01;;;;;;;4.10;1.30;;;;;;;;;;4994081;28;21013;-53
2021/11/01 12:08:30;;;;;;;2.50;1.10;;;;;;;;;;4994374;28;20428;-51
2021/11/01 12:18:55;;;;;;;3.90;1.13;;;;;;;;;;4994284;28;20507;-51
2021/11/01 12:21:22;;;;;;;2.03;1.10;;;;;;;;;;4993443;28;20817;-51
2021/11/01 12:23:48;;;;;;;1.90;1.33;;;;;;;;;;4993905;28;20446;-53
2021/11/01 12:26:16;;;;;;;1.83;1.00;;;;;;;;;;4993695;28;20465;-53
2021/11/01 12:28:42;;;;;;;2.87;1.23;;;;;;;;;;4993888;28;20407;-51
2021/11/01 12:31:10;;;;;;;3.00;1.30;;;;;;;;;;4993518;28;20539;-51
2021/11/01 12:33:36;;;;;;;1.80;1.00;;;;;;;;;;4993738;28;20417;-51
2021/11/01 12:36:06;;;;;;;1.30;1.20;;;;;;;;;;4993603;28;20444;-51
2021/11/01 12:39:11;;;;;;;2.50;1.10;;;;;;;;;;4985317;28;20853;-52
2021/11/01 12:57:35;;;;;;;8.40;4.50;;;;;;;;;;4993562;28;20406;-53
2021/11/01 13:00:02;;;;;;;3.53;2.63;;;;;;;;;;4993565;28;20405;-53
2021/11/01 13:02:33;;;;;;;6.70;4.90;;;;;;;;;;4993151;28;20406;-54
2021/11/01 13:05:01;;;;;;;4.67;2.97;;;;;;;;;;4993486;28;20418;-54
2021/11/01 13:17:55;;;;;;;1.83;1.10;;;;;;;;;;4993436;28;20434;-53
2021/11/01 13:20:22;;;;;;;2.70;1.27;;;;;;;;;;4992822;28;20448;-53
2021/11/01 13:22:51;;;;;;;2.50;1.20;;;;;;;;;;4993486;28;20458;-54
2021/11/01 13:25:32;;;;;;;1.37;1.17;;;;;;;;;;4988385;28;20478;-54
2021/11/01 13:28:24;;;;;;;2.83;1.30;;;;;;;;;;4990257;28;20959;-53
2021/11/01 13:38:52;;;;;;;1.50;1.03;;;;;;;;;;5019643;23;20495;-52
2021/11/01 13:41:27;;;;;;;4.67;1.80;;;;;;;;;;5004445;28;20427;-50
2021/11/01 13:43:54;;;;;;;2.53;1.10;;;;;;;;;;5012194;28;20815;-50
2021/11/01 13:46:26;;;;;;;3.37;1.37;;;;;;;;;;5010798;28;20427;-50
2021/11/01 13:48:56;;;;;;;1.63;1.00;;;;;;;;;;5011903;28;20417;-50
2021/11/01 13:51:22;;;;;;;2.00;1.07;;;;;;;;;;5011928;28;20487;-50
2021/11/01 13:54:03;;;;;;;3.90;2.70;;;;;;;;;;5011573;28;20501;-50
2021/11/01 13:56:39;;;;;;;2.73;1.60;;;;;;;;;;5012209;28;20387;-50
2021/11/01 13:59:21;;;;;;;3.17;1.83;;;;;;;;;;5011964;28;20542;-50
2021/11/01 14:12:53;;;;;;;1.50;1.10;;;;;;;;;;5012207;28;20463;-51
2021/11/01 14:26:56;;;;;;;1.77;0.93;;;;;;;;;;5010507;28;20472;-51
2021/11/01 14:28:46;;;;;;;3.30;1.20;;;;;;;;;;5011674;28;20481;-51
2021/11/01 14:31:31;;;;;;;2.90;1.50;;;;;;;;;;5011486;28;20418;-50
2021/11/01 15:04:36;;;;;;;3.33;1.20;;;;;;;;;;5011396;28;20847;-50
2021/11/01 15:22:54;;;;;;;1.40;1.20;;;;;;;;;;5014374;28;20399;-50
2021/11/01 16:19:40;;;;;;;4.70;1.57;;;;;;;;;;5013725;28;20424;-48
2021/11/01 16:22:06;;;;;;;3.90;1.70;;;;;;;;;;5013606;28;20430;-50
2021/11/01 16:24:34;;;;;;;5.60;1.70;;;;;;;;;;5012877;28;20967;-49
2021/11/01 16:27:00;;;;;;;3.70;1.53;;;;;;;;;;5013563;28;20399;-51
2021/11/01 16:29:30;;;;;;;3.87;1.63;;;;;;;;;;5013441;28;20425;-48
2021/11/01 16:32:03;;;;;;;2.70;1.30;;;;;;;;;;5013250;28;20433;-50
2021/11/01 16:34:31;;;;;;;2.20;1.30;;;;;;;;;;5013477;28;20409;-49
2021/11/01 16:37:13;;;;;;;2.37;1.57;;;;;;;;;;5013473;28;20406;-48
2021/11/01 16:39:49;;;;;;;4.60;1.60;;;;;;;;;;5012970;28;20510;-48
2021/11/01 16:42:17;;;;;;;1.83;1.50;;;;;;;;;;5013126;28;20922;-48
2021/11/01 16:44:43;;;;;;;2.50;1.60;;;;;;;;;;5013155;28;20399;-48
2021/11/01 16:47:10;;;;;;;4.60;1.90;;;;;;;;;;5013273;28;20390;-49
2021/11/01 16:49:36;;;;;;;2.77;1.73;;;;;;;;;;5013007;28;20412;-49
2021/11/01 16:52:15;;;;;;;2.83;2.10;;;;;;;;;;5012914;28;20391;-50
2021/11/01 16:54:42;;;;;;;4.03;1.80;;;;;;;;;;5013263;28;20392;-49
2021/11/01 16:57:17;;;;;;;4.10;2.40;;;;;;;;;;5012383;28;20435;-51
2021/11/01 17:00:01;;;;;;;3.93;2.83;;;;;;;;;;5011721;28;20495;-49
2021/11/01 17:07:48;;;;;;;3.10;2.70;;;;;;;;;;5016144;28;20746;-51
2021/11/01 17:21:22;;;;;;;3.70;2.43;;;;;;;;;;5031851;28;20419;-48
2021/11/01 17:29:31;;;;;;;3.50;2.53;;;;;;;;;;5033023;28;20426;-51
2021/11/01 17:37:27;;;;;;;5.60;2.27;;;;;;;;;;5031154;28;20391;-51
2021/11/01 18:44:01;;;;;;;9.27;2.70;;;;;;;;;;5031668;28;20454;-51
2021/11/01 18:51:35;;;;;;;3.80;2.40;;;;;;;;;;5035102;28;20437;-49
2021/11/01 18:54:01;;;;;;;2.77;2.57;;;;;;;;;;5035251;28;20407;-51
2021/11/01 18:56:34;;;;;;;5.63;2.10;;;;;;;;;;5035271;28;20924;-51
2021/11/01 18:59:02;;;;;;;3.20;2.20;;;;;;;;;;5035066;28;21027;-50
2021/11/01 19:01:31;;;;;;;5.07;2.33;;;;;;;;;;5034944;28;20463;-50
2021/11/01 19:03:57;;;;;;;5.20;2.30;;;;;;;;;;5035091;28;20481;-50
2021/11/01 20:03:59;;;;;;;7.90;1.93;;;;;;;;;;5014148;28;20458;-49
2021/11/01 20:06:33;;;;;;;4.83;1.70;;;;;;;;;;5013426;28;20834;-49
2021/11/01 21:26:35;;;;;;;4.20;1.97;;;;;;;;;;5012137;28;20766;-51
2021/11/01 21:29:02;;;;;;;7.53;2.10;;;;;;;;;;5009799;28;20427;-50
2021/11/01 21:31:28;;;;;;;7.40;2.37;;;;;;;;;;5012034;28;20392;-51
2021/11/01 21:33:58;;;;;;;6.93;2.40;;;;;;;;;;5012455;28;20759;-51
2021/11/01 21:36:24;;;;;;;4.93;2.13;;;;;;;;;;5012261;28;20509;-50
2021/11/01 21:38:55;;;;;;;4.37;2.10;;;;;;;;;;5012051;28;20462;-51
2021/11/01 21:41:21;;;;;;;2.60;2.33;;;;;;;;;;5011428;28;20811;-50
2021/11/01 21:43:47;;;;;;;4.73;2.40;;;;;;;;;;5011568;28;20458;-51
2021/11/01 21:46:14;;;;;;;2.50;1.93;;;;;;;;;;5011511;28;20391;-50
2021/11/01 21:48:40;;;;;;;2.93;2.37;;;;;;;;;;5009680;28;20519;-51
2021/11/01 21:51:06;;;;;;;8.70;2.00;;;;;;;;;;5010847;28;20415;-50
2021/11/01 21:53:34;;;;;;;5.63;2.10;;;;;;;;;;5011548;28;20905;-50
2021/11/01 21:56:02;;;;;;;1.67;1.57;;;;;;;;;;5010274;28;20412;-51
2021/11/01 22:20:07;;;;;;;3.33;1.90;;;;;;;;;;5011436;28;20426;-50
2021/11/01 22:38:50;;;;;;;5.03;2.23;;;;;;;;;;5014907;28;20496;-48
2021/11/01 22:46:51;;;;;;;4.80;2.60;;;;;;;;;;5014963;28;20483;-48
2021/11/01 22:57:28;;;;;;;9.07;2.60;;;;;;;;;;5014969;28;20921;-49
2021/11/01 22:59:54;;;;;;;6.90;2.30;;;;;;;;;;5015055;28;20509;-48
2021/11/01 23:02:20;;;;;;;2.97;2.00;;;;;;;;;;5015196;28;20754;-48
2021/11/01 23:04:55;;;;;;;8.10;2.90;;;;;;;;;;5015060;28;20509;-49
2021/11/01 23:32:04;;;;;;;7.07;2.13;;;;;;;;;;5014203;28;20457;-51
2021/11/01 23:34:30;;;;;;;6.73;2.57;;;;;;;;;;5014671;28;20434;-50
2021/11/01 23:36:56;;;;;;;3.63;2.30;;;;;;;;;;5014557;28;20395;-51
2021/11/01 23:39:23;;;;;;;5.40;2.30;;;;;;;;;;5014398;28;20446;-50
2021/11/01 23:41:49;;;;;;;6.60;2.90;;;;;;;;;;5014301;28;20453;-51
2021/11/01 23:44:18;;;;;;;2.53;2.03;;;;;;;;;;5014370;28;20449;-50
2021/11/01 23:46:44;;;;;;;2.53;2.10;;;;;;;;;;5014343;28;20416;-52
2021/11/01 23:49:10;;;;;;;3.60;2.30;;;;;;;;;;5014199;28;20421;-50
2021/11/01 23:51:37;;;;;;;11.90;2.80;;;;;;;;;;5014281;28;20424;-52
2021/11/01 23:56:34;;;;;;;3.80;2.40;;;;;;;;;;5014376;28;20500;-51
2021/11/01 23:59:00;;;;;;;7.37;2.27;;;;;;;;;;5014075;28;20462;-51
